ΕΜΥ, Εθνική Μετεωρολογική Υπηρεσία - Δελτία Καιρού, Προγνώσεις

ΑΕΡΟΝΑΥΤΙΛΙΑ

GREEK AIRPORTS CODES

TAF LGKL 190800Z 1909/1918 15005KT 9999 SCT020 SCT080 PROB30 TEMPO 1910/1915 5000 RA SCT020 BKN080=

EUROPEAN AIRPORTS CODES